sensor_id;sensor_type;location;lat;lon;timestamp;P1;durP1;ratioP1;P2;durP2;ratioP2
66946;SDS011;53853;51.982;5.928;2022-08-21T00:00:32;6.85;;;3.30;;
66946;SDS011;53853;51.982;5.928;2022-08-21T00:03:08;4.68;;;2.72;;
66946;SDS011;53853;51.982;5.928;2022-08-21T00:05:40;5.10;;;2.83;;
66946;SDS011;53853;51.982;5.928;2022-08-21T00:08:14;6.40;;;2.97;;
66946;SDS011;53853;51.982;5.928;2022-08-21T00:10:45;4.22;;;2.78;;
66946;SDS011;53853;51.982;5.928;2022-08-21T00:13:18;4.65;;;2.80;;
66946;SDS011;53853;51.982;5.928;2022-08-21T00:15:48;6.05;;;3.00;;
66946;SDS011;53853;51.982;5.928;2022-08-21T00:18:19;6.03;;;2.80;;
66946;SDS011;53853;51.982;5.928;2022-08-21T00:20:49;6.22;;;3.30;;
66946;SDS011;53853;51.982;5.928;2022-08-21T00:23:21;4.75;;;2.95;;
66946;SDS011;53853;51.982;5.928;2022-08-21T00:25:51;8.13;;;3.78;;
66946;SDS011;53853;51.982;5.928;2022-08-21T00:28:21;5.90;;;3.00;;
66946;SDS011;53853;51.982;5.928;2022-08-21T00:30:51;5.50;;;3.30;;
66946;SDS011;53853;51.982;5.928;2022-08-21T00:33:22;7.95;;;3.25;;
66946;SDS011;53853;51.982;5.928;2022-08-21T00:35:52;5.07;;;2.88;;
66946;SDS011;53853;51.982;5.928;2022-08-21T00:38:24;6.85;;;3.15;;
66946;SDS011;53853;51.982;5.928;2022-08-21T00:40:56;4.90;;;2.63;;
66946;SDS011;53853;51.982;5.928;2022-08-21T00:43:29;4.30;;;2.90;;
66946;SDS011;53853;51.982;5.928;2022-08-21T00:46:01;6.32;;;3.13;;
66946;SDS011;53853;51.982;5.928;2022-08-21T00:48:33;5.25;;;2.75;;
66946;SDS011;53853;51.982;5.928;2022-08-21T00:51:05;4.63;;;2.90;;
66946;SDS011;53853;51.982;5.928;2022-08-21T00:53:40;5.80;;;3.50;;
66946;SDS011;53853;51.982;5.928;2022-08-21T00:56:12;6.50;;;2.90;;
66946;SDS011;53853;51.982;5.928;2022-08-21T00:58:42;5.88;;;3.00;;
66946;SDS011;53853;51.982;5.928;2022-08-21T01:01:13;4.53;;;3.55;;
66946;SDS011;53853;51.982;5.928;2022-08-21T01:03:43;6.55;;;3.33;;
66946;SDS011;53853;51.982;5.928;2022-08-21T01:06:14;5.25;;;3.30;;
66946;SDS011;53853;51.982;5.928;2022-08-21T01:08:47;6.15;;;3.53;;
66946;SDS011;53853;51.982;5.928;2022-08-21T01:11:17;8.80;;;3.65;;
66946;SDS011;53853;51.982;5.928;2022-08-21T01:13:48;5.88;;;3.45;;
66946;SDS011;53853;51.982;5.928;2022-08-21T01:16:19;6.70;;;3.25;;
66946;SDS011;53853;51.982;5.928;2022-08-21T01:18:51;5.88;;;3.35;;
66946;SDS011;53853;51.982;5.928;2022-08-21T01:21:24;7.10;;;3.40;;
66946;SDS011;53853;51.982;5.928;2022-08-21T01:23:55;6.10;;;3.17;;
66946;SDS011;53853;51.982;5.928;2022-08-21T01:26:27;5.68;;;3.30;;
66946;SDS011;53853;51.982;5.928;2022-08-21T01:31:36;6.90;;;3.50;;
66946;SDS011;53853;51.982;5.928;2022-08-21T01:34:06;7.68;;;3.85;;
66946;SDS011;53853;51.982;5.928;2022-08-21T01:36:39;6.35;;;3.42;;
66946;SDS011;53853;51.982;5.928;2022-08-21T01:39:09;5.53;;;3.58;;
66946;SDS011;53853;51.982;5.928;2022-08-21T01:41:40;7.05;;;3.85;;
66946;SDS011;53853;51.982;5.928;2022-08-21T01:44:10;5.80;;;3.55;;
66946;SDS011;53853;51.982;5.928;2022-08-21T01:46:40;8.50;;;5.38;;
66946;SDS011;53853;51.982;5.928;2022-08-21T01:49:09;6.80;;;3.88;;
66946;SDS011;53853;51.982;5.928;2022-08-21T01:51:42;8.63;;;4.15;;
66946;SDS011;53853;51.982;5.928;2022-08-21T01:54:12;7.15;;;4.75;;
66946;SDS011;53853;51.982;5.928;2022-08-21T01:56:43;6.70;;;4.57;;
66946;SDS011;53853;51.982;5.928;2022-08-21T01:59:15;8.63;;;5.10;;
66946;SDS011;53853;51.982;5.928;2022-08-21T02:01:45;7.18;;;4.53;;
66946;SDS011;53853;51.982;5.928;2022-08-21T02:04:15;6.97;;;3.85;;
66946;SDS011;53853;51.982;5.928;2022-08-21T02:06:48;6.10;;;4.20;;
66946;SDS011;53853;51.982;5.928;2022-08-21T02:09:18;5.20;;;3.63;;
66946;SDS011;53853;51.982;5.928;2022-08-21T02:11:48;6.90;;;3.70;;
66946;SDS011;53853;51.982;5.928;2022-08-21T02:14:18;6.10;;;3.67;;
66946;SDS011;53853;51.982;5.928;2022-08-21T02:16:48;6.15;;;3.90;;
66946;SDS011;53853;51.982;5.928;2022-08-21T02:19:18;7.65;;;3.88;;
66946;SDS011;53853;51.982;5.928;2022-08-21T02:21:50;7.25;;;3.88;;
66946;SDS011;53853;51.982;5.928;2022-08-21T02:24:20;6.45;;;3.88;;
66946;SDS011;53853;51.982;5.928;2022-08-21T02:26:49;6.53;;;4.93;;
66946;SDS011;53853;51.982;5.928;2022-08-21T02:29:19;6.00;;;4.15;;
66946;SDS011;53853;51.982;5.928;2022-08-21T02:31:49;7.38;;;4.18;;
66946;SDS011;53853;51.982;5.928;2022-08-21T02:34:19;6.75;;;4.50;;
66946;SDS011;53853;51.982;5.928;2022-08-21T02:36:51;6.03;;;4.20;;
66946;SDS011;53853;51.982;5.928;2022-08-21T02:39:21;8.82;;;5.20;;
66946;SDS011;53853;51.982;5.928;2022-08-21T02:41:51;8.95;;;4.60;;
66946;SDS011;53853;51.982;5.928;2022-08-21T02:44:21;5.85;;;4.10;;
66946;SDS011;53853;51.982;5.928;2022-08-21T02:46:50;6.80;;;3.85;;
66946;SDS011;53853;51.982;5.928;2022-08-21T02:49:21;7.35;;;4.20;;
66946;SDS011;53853;51.982;5.928;2022-08-21T02:51:53;4.65;;;3.88;;
66946;SDS011;53853;51.982;5.928;2022-08-21T02:54:23;5.65;;;3.72;;
66946;SDS011;53853;51.982;5.928;2022-08-21T02:56:53;7.78;;;4.55;;
66946;SDS011;53853;51.982;5.928;2022-08-21T02:59:23;8.38;;;5.25;;
66946;SDS011;53853;51.982;5.928;2022-08-21T03:01:53;5.47;;;4.45;;
66946;SDS011;53853;51.982;5.928;2022-08-21T03:04:22;6.95;;;4.53;;
66946;SDS011;53853;51.982;5.928;2022-08-21T03:06:55;7.10;;;4.43;;
66946;SDS011;53853;51.982;5.928;2022-08-21T03:09:25;6.63;;;4.60;;
66946;SDS011;53853;51.982;5.928;2022-08-21T03:11:55;11.18;;;4.88;;
66946;SDS011;53853;51.982;5.928;2022-08-21T03:14:25;4.88;;;4.30;;
66946;SDS011;53853;51.982;5.928;2022-08-21T03:16:55;6.68;;;4.38;;
66946;SDS011;53853;51.982;5.928;2022-08-21T03:19:24;5.90;;;4.32;;
66946;SDS011;53853;51.982;5.928;2022-08-21T03:21:57;6.95;;;4.47;;
66946;SDS011;53853;51.982;5.928;2022-08-21T03:24:26;8.38;;;4.03;;
66946;SDS011;53853;51.982;5.928;2022-08-21T03:26:56;6.40;;;4.88;;
66946;SDS011;53853;51.982;5.928;2022-08-21T03:29:26;5.82;;;3.78;;
66946;SDS011;53853;51.982;5.928;2022-08-21T03:31:56;6.35;;;4.82;;
66946;SDS011;53853;51.982;5.928;2022-08-21T03:34:26;6.10;;;4.43;;
66946;SDS011;53853;51.982;5.928;2022-08-21T03:36:58;5.95;;;3.85;;
66946;SDS011;53853;51.982;5.928;2022-08-21T03:39:28;7.25;;;4.05;;
66946;SDS011;53853;51.982;5.928;2022-08-21T03:41:57;6.18;;;4.00;;
66946;SDS011;53853;51.982;5.928;2022-08-21T03:44:28;6.65;;;4.35;;
66946;SDS011;53853;51.982;5.928;2022-08-21T03:46:58;5.78;;;4.65;;
66946;SDS011;53853;51.982;5.928;2022-08-21T03:49:27;8.18;;;4.63;;
66946;SDS011;53853;51.982;5.928;2022-08-21T03:52:00;5.45;;;3.75;;
66946;SDS011;53853;51.982;5.928;2022-08-21T03:57:01;6.60;;;4.28;;
66946;SDS011;53853;51.982;5.928;2022-08-21T03:59:31;8.85;;;4.22;;
66946;SDS011;53853;51.982;5.928;2022-08-21T04:02:03;6.20;;;4.13;;
66946;SDS011;53853;51.982;5.928;2022-08-21T04:04:34;4.47;;;3.55;;
66946;SDS011;53853;51.982;5.928;2022-08-21T04:07:07;5.93;;;4.00;;
66946;SDS011;53853;51.982;5.928;2022-08-21T04:09:37;4.43;;;3.53;;
66946;SDS011;53853;51.982;5.928;2022-08-21T04:12:07;4.80;;;3.70;;
66946;SDS011;53853;51.982;5.928;2022-08-21T04:14:37;6.30;;;3.88;;
66946;SDS011;53853;51.982;5.928;2022-08-21T04:17:07;6.15;;;3.72;;
66946;SDS011;53853;51.982;5.928;2022-08-21T04:19:37;7.65;;;4.72;;
66946;SDS011;53853;51.982;5.928;2022-08-21T04:22:09;5.28;;;4.22;;
66946;SDS011;53853;51.982;5.928;2022-08-21T04:24:39;5.60;;;3.90;;
66946;SDS011;53853;51.982;5.928;2022-08-21T04:27:09;6.25;;;4.60;;
66946;SDS011;53853;51.982;5.928;2022-08-21T04:29:40;5.82;;;4.68;;
66946;SDS011;53853;51.982;5.928;2022-08-21T04:32:09;6.60;;;4.35;;
66946;SDS011;53853;51.982;5.928;2022-08-21T04:34:39;5.47;;;3.40;;
66946;SDS011;53853;51.982;5.928;2022-08-21T04:37:11;6.07;;;4.47;;
66946;SDS011;53853;51.982;5.928;2022-08-21T04:39:41;6.15;;;4.28;;
66946;SDS011;53853;51.982;5.928;2022-08-21T04:42:11;7.60;;;4.55;;
66946;SDS011;53853;51.982;5.928;2022-08-21T04:44:41;7.25;;;4.30;;
66946;SDS011;53853;51.982;5.928;2022-08-21T04:47:11;6.32;;;4.93;;
66946;SDS011;53853;51.982;5.928;2022-08-21T04:49:42;8.43;;;4.93;;
66946;SDS011;53853;51.982;5.928;2022-08-21T04:52:17;6.90;;;4.88;;
66946;SDS011;53853;51.982;5.928;2022-08-21T04:54:51;10.07;;;6.15;;
66946;SDS011;53853;51.982;5.928;2022-08-21T04:57:21;8.27;;;4.90;;
66946;SDS011;53853;51.982;5.928;2022-08-21T04:59:52;7.65;;;5.55;;
66946;SDS011;53853;51.982;5.928;2022-08-21T05:02:22;7.05;;;5.00;;
66946;SDS011;53853;51.982;5.928;2022-08-21T05:04:52;6.32;;;4.35;;
66946;SDS011;53853;51.982;5.928;2022-08-21T05:07:27;5.70;;;3.90;;
66946;SDS011;53853;51.982;5.928;2022-08-21T05:10:00;6.22;;;4.13;;
66946;SDS011;53853;51.982;5.928;2022-08-21T05:12:30;8.73;;;5.10;;
66946;SDS011;53853;51.982;5.928;2022-08-21T05:15:00;5.70;;;4.35;;
66946;SDS011;53853;51.982;5.928;2022-08-21T05:17:31;9.65;;;4.50;;
66946;SDS011;53853;51.982;5.928;2022-08-21T05:20:01;8.48;;;4.60;;
66946;SDS011;53853;51.982;5.928;2022-08-21T05:22:34;5.88;;;4.80;;
66946;SDS011;53853;51.982;5.928;2022-08-21T05:25:05;6.30;;;4.32;;
66946;SDS011;53853;51.982;5.928;2022-08-21T05:27:36;7.70;;;4.35;;
66946;SDS011;53853;51.982;5.928;2022-08-21T05:30:07;6.80;;;4.65;;
66946;SDS011;53853;51.982;5.928;2022-08-21T05:32:38;6.63;;;5.38;;
66946;SDS011;53853;51.982;5.928;2022-08-21T05:35:08;8.18;;;5.88;;
66946;SDS011;53853;51.982;5.928;2022-08-21T05:37:40;5.47;;;4.47;;
66946;SDS011;53853;51.982;5.928;2022-08-21T05:40:11;6.25;;;4.65;;
66946;SDS011;53853;51.982;5.928;2022-08-21T05:42:40;7.28;;;5.00;;
66946;SDS011;53853;51.982;5.928;2022-08-21T05:45:10;6.65;;;4.70;;
66946;SDS011;53853;51.982;5.928;2022-08-21T05:47:40;6.78;;;5.00;;
66946;SDS011;53853;51.982;5.928;2022-08-21T05:50:10;6.05;;;5.15;;
66946;SDS011;53853;51.982;5.928;2022-08-21T05:52:43;5.38;;;4.32;;
66946;SDS011;53853;51.982;5.928;2022-08-21T05:55:12;10.18;;;6.28;;
66946;SDS011;53853;51.982;5.928;2022-08-21T05:57:42;10.38;;;7.28;;
66946;SDS011;53853;51.982;5.928;2022-08-21T06:00:13;7.28;;;5.90;;
66946;SDS011;53853;51.982;5.928;2022-08-21T06:02:43;10.88;;;8.80;;
66946;SDS011;53853;51.982;5.928;2022-08-21T06:05:14;14.38;;;9.43;;
66946;SDS011;53853;51.982;5.928;2022-08-21T06:07:47;13.93;;;9.93;;
66946;SDS011;53853;51.982;5.928;2022-08-21T06:10:17;9.48;;;8.05;;
66946;SDS011;53853;51.982;5.928;2022-08-21T06:12:51;12.75;;;8.73;;
66946;SDS011;53853;51.982;5.928;2022-08-21T06:15:22;11.90;;;9.77;;
66946;SDS011;53853;51.982;5.928;2022-08-21T06:17:52;11.35;;;8.82;;
66946;SDS011;53853;51.982;5.928;2022-08-21T06:20:22;11.00;;;7.85;;
66946;SDS011;53853;51.982;5.928;2022-08-21T06:22:54;11.23;;;8.95;;
66946;SDS011;53853;51.982;5.928;2022-08-21T06:25:24;16.30;;;10.07;;
66946;SDS011;53853;51.982;5.928;2022-08-21T06:27:59;14.50;;;10.73;;
66946;SDS011;53853;51.982;5.928;2022-08-21T06:30:30;15.63;;;11.05;;
66946;SDS011;53853;51.982;5.928;2022-08-21T06:33:00;17.65;;;11.65;;
66946;SDS011;53853;51.982;5.928;2022-08-21T06:35:30;11.90;;;9.13;;
66946;SDS011;53853;51.982;5.928;2022-08-21T06:38:02;8.88;;;7.25;;
66946;SDS011;53853;51.982;5.928;2022-08-21T06:40:32;17.38;;;10.10;;
66946;SDS011;53853;51.982;5.928;2022-08-21T06:43:06;17.45;;;11.35;;
66946;SDS011;53853;51.982;5.928;2022-08-21T06:45:39;13.40;;;10.20;;
66946;SDS011;53853;51.982;5.928;2022-08-21T06:48:09;15.40;;;9.90;;
66946;SDS011;53853;51.982;5.928;2022-08-21T06:50:39;15.77;;;10.13;;
66946;SDS011;53853;51.982;5.928;2022-08-21T06:53:15;16.48;;;10.32;;
66946;SDS011;53853;51.982;5.928;2022-08-21T06:55:47;11.80;;;8.27;;
66946;SDS011;53853;51.982;5.928;2022-08-21T06:58:17;16.50;;;9.15;;
66946;SDS011;53853;51.982;5.928;2022-08-21T07:00:48;18.40;;;10.40;;
66946;SDS011;53853;51.982;5.928;2022-08-21T07:03:20;14.43;;;9.38;;
66946;SDS011;53853;51.982;5.928;2022-08-21T07:05:52;14.15;;;8.60;;
66946;SDS011;53853;51.982;5.928;2022-08-21T07:08:27;14.98;;;9.48;;
66946;SDS011;53853;51.982;5.928;2022-08-21T07:10:58;10.55;;;7.25;;
66946;SDS011;53853;51.982;5.928;2022-08-21T07:13:30;14.70;;;9.07;;
66946;SDS011;53853;51.982;5.928;2022-08-21T07:16:00;14.63;;;8.40;;
66946;SDS011;53853;51.982;5.928;2022-08-21T07:18:30;15.15;;;9.25;;
66946;SDS011;53853;51.982;5.928;2022-08-21T07:21:00;10.57;;;7.95;;
66946;SDS011;53853;51.982;5.928;2022-08-21T07:23:34;13.63;;;7.13;;
66946;SDS011;53853;51.982;5.928;2022-08-21T07:26:06;10.27;;;6.70;;
66946;SDS011;53853;51.982;5.928;2022-08-21T07:28:37;10.70;;;6.65;;
66946;SDS011;53853;51.982;5.928;2022-08-21T07:31:08;14.50;;;9.43;;
66946;SDS011;53853;51.982;5.928;2022-08-21T07:33:39;13.07;;;8.05;;
66946;SDS011;53853;51.982;5.928;2022-08-21T07:36:10;11.88;;;7.35;;
66946;SDS011;53853;51.982;5.928;2022-08-21T07:38:43;7.35;;;5.72;;
66946;SDS011;53853;51.982;5.928;2022-08-21T07:41:14;14.52;;;6.68;;
66946;SDS011;53853;51.982;5.928;2022-08-21T07:43:45;12.60;;;7.65;;
66946;SDS011;53853;51.982;5.928;2022-08-21T07:46:15;14.93;;;8.98;;
66946;SDS011;53853;51.982;5.928;2022-08-21T07:48:45;11.77;;;7.97;;
66946;SDS011;53853;51.982;5.928;2022-08-21T07:51:15;12.32;;;7.80;;
66946;SDS011;53853;51.982;5.928;2022-08-21T07:53:50;16.42;;;8.45;;
66946;SDS011;53853;51.982;5.928;2022-08-21T07:56:21;11.00;;;6.07;;
66946;SDS011;53853;51.982;5.928;2022-08-21T07:58:51;10.27;;;6.22;;
66946;SDS011;53853;51.982;5.928;2022-08-21T08:01:23;13.70;;;7.80;;
66946;SDS011;53853;51.982;5.928;2022-08-21T08:03:53;10.45;;;8.10;;
66946;SDS011;53853;51.982;5.928;2022-08-21T08:06:23;13.60;;;6.78;;
66946;SDS011;53853;51.982;5.928;2022-08-21T08:08:55;12.80;;;8.23;;
66946;SDS011;53853;51.982;5.928;2022-08-21T08:11:28;16.15;;;8.43;;
66946;SDS011;53853;51.982;5.928;2022-08-21T08:13:58;8.68;;;5.40;;
66946;SDS011;53853;51.982;5.928;2022-08-21T08:16:29;12.23;;;7.25;;
66946;SDS011;53853;51.982;5.928;2022-08-21T08:18:59;14.68;;;7.40;;
66946;SDS011;53853;51.982;5.928;2022-08-21T08:21:29;13.05;;;7.20;;
66946;SDS011;53853;51.982;5.928;2022-08-21T08:24:02;13.85;;;8.63;;
66946;SDS011;53853;51.982;5.928;2022-08-21T08:26:32;10.97;;;6.60;;
66946;SDS011;53853;51.982;5.928;2022-08-21T08:29:02;13.02;;;7.50;;
66946;SDS011;53853;51.982;5.928;2022-08-21T08:31:32;17.60;;;7.85;;
66946;SDS011;53853;51.982;5.928;2022-08-21T08:34:02;15.80;;;7.78;;
66946;SDS011;53853;51.982;5.928;2022-08-21T08:36:32;17.92;;;7.35;;
66946;SDS011;53853;51.982;5.928;2022-08-21T08:39:06;17.75;;;11.45;;
66946;SDS011;53853;51.982;5.928;2022-08-21T08:41:36;14.40;;;7.68;;
66946;SDS011;53853;51.982;5.928;2022-08-21T08:44:06;14.43;;;5.53;;
66946;SDS011;53853;51.982;5.928;2022-08-21T08:46:39;9.85;;;5.28;;
66946;SDS011;53853;51.982;5.928;2022-08-21T08:49:15;8.93;;;4.60;;
66946;SDS011;53853;51.982;5.928;2022-08-21T08:51:51;13.73;;;7.63;;
66946;SDS011;53853;51.982;5.928;2022-08-21T08:54:28;12.02;;;7.28;;
66946;SDS011;53853;51.982;5.928;2022-08-21T08:57:04;15.77;;;8.05;;
66946;SDS011;53853;51.982;5.928;2022-08-21T08:59:39;15.05;;;7.32;;
66946;SDS011;53853;51.982;5.928;2022-08-21T09:02:12;7.13;;;4.05;;
66946;SDS011;53853;51.982;5.928;2022-08-21T09:04:45;11.60;;;4.25;;
66946;SDS011;53853;51.982;5.928;2022-08-21T09:07:19;13.98;;;5.40;;
66946;SDS011;53853;51.982;5.928;2022-08-21T09:10:09;9.23;;;4.53;;
66946;SDS011;53853;51.982;5.928;2022-08-21T09:12:45;12.95;;;5.28;;
66946;SDS011;53853;51.982;5.928;2022-08-21T09:15:27;9.23;;;3.92;;
66946;SDS011;53853;51.982;5.928;2022-08-21T09:18:11;12.00;;;4.68;;
66946;SDS011;53853;51.982;5.928;2022-08-21T09:20:55;9.50;;;4.38;;
66946;SDS011;53853;51.982;5.928;2022-08-21T09:23:36;13.40;;;5.63;;
66946;SDS011;53853;51.982;5.928;2022-08-21T09:26:21;14.55;;;4.45;;
66946;SDS011;53853;51.982;5.928;2022-08-21T09:28:54;8.85;;;3.35;;
66946;SDS011;53853;51.982;5.928;2022-08-21T09:31:28;7.88;;;3.70;;
66946;SDS011;53853;51.982;5.928;2022-08-21T09:34:00;9.93;;;3.70;;
66946;SDS011;53853;51.982;5.928;2022-08-21T09:36:37;11.88;;;3.95;;
66946;SDS011;53853;51.982;5.928;2022-08-21T09:39:09;7.82;;;2.83;;
66946;SDS011;53853;51.982;5.928;2022-08-21T09:41:43;10.88;;;3.45;;
66946;SDS011;53853;51.982;5.928;2022-08-21T09:44:13;14.27;;;3.50;;
66946;SDS011;53853;51.982;5.928;2022-08-21T09:46:55;7.90;;;2.53;;
66946;SDS011;53853;51.982;5.928;2022-08-21T09:49:26;10.48;;;4.18;;
66946;SDS011;53853;51.982;5.928;2022-08-21T09:51:57;7.72;;;2.83;;
66946;SDS011;53853;51.982;5.928;2022-08-21T09:54:29;9.25;;;3.75;;
66946;SDS011;53853;51.982;5.928;2022-08-21T09:57:12;12.13;;;3.53;;
66946;SDS011;53853;51.982;5.928;2022-08-21T10:00:07;7.22;;;3.28;;
66946;SDS011;53853;51.982;5.928;2022-08-21T10:02:55;8.07;;;2.92;;
66946;SDS011;53853;51.982;5.928;2022-08-21T10:05:50;11.82;;;4.60;;
66946;SDS011;53853;51.982;5.928;2022-08-21T10:08:28;11.10;;;4.63;;
66946;SDS011;53853;51.982;5.928;2022-08-21T10:11:04;12.10;;;3.22;;
66946;SDS011;53853;51.982;5.928;2022-08-21T10:13:44;9.48;;;4.13;;
66946;SDS011;53853;51.982;5.928;2022-08-21T10:16:23;5.85;;;2.20;;
66946;SDS011;53853;51.982;5.928;2022-08-21T10:19:06;6.07;;;1.80;;
66946;SDS011;53853;51.982;5.928;2022-08-21T10:21:46;8.95;;;3.13;;
66946;SDS011;53853;51.982;5.928;2022-08-21T10:24:29;6.25;;;2.15;;
66946;SDS011;53853;51.982;5.928;2022-08-21T10:27:06;7.20;;;2.30;;
66946;SDS011;53853;51.982;5.928;2022-08-21T10:29:47;7.47;;;2.38;;
66946;SDS011;53853;51.982;5.928;2022-08-21T10:32:26;10.98;;;3.58;;
66946;SDS011;53853;51.982;5.928;2022-08-21T10:37:47;6.63;;;1.90;;
66946;SDS011;53853;51.982;5.928;2022-08-21T10:40:28;6.57;;;2.25;;
66946;SDS011;53853;51.982;5.928;2022-08-21T10:43:05;8.05;;;2.88;;
66946;SDS011;53853;51.982;5.928;2022-08-21T10:45:57;6.35;;;2.30;;
66946;SDS011;53853;51.982;5.928;2022-08-21T10:48:36;9.13;;;2.63;;
66946;SDS011;53853;51.982;5.928;2022-08-21T10:51:11;6.72;;;2.08;;
66946;SDS011;53853;51.982;5.928;2022-08-21T10:53:47;8.93;;;2.38;;
66946;SDS011;53853;51.982;5.928;2022-08-21T10:56:24;4.97;;;1.70;;
66946;SDS011;53853;51.982;5.928;2022-08-21T10:59:00;6.13;;;2.08;;
66946;SDS011;53853;51.982;5.928;2022-08-21T11:01:42;7.07;;;2.30;;
66946;SDS011;53853;51.982;5.928;2022-08-21T11:04:19;8.98;;;3.03;;
66946;SDS011;53853;51.982;5.928;2022-08-21T11:06:57;7.63;;;2.65;;
66946;SDS011;53853;51.982;5.928;2022-08-21T11:09:32;9.85;;;2.17;;
66946;SDS011;53853;51.982;5.928;2022-08-21T11:12:06;7.20;;;2.83;;
66946;SDS011;53853;51.982;5.928;2022-08-21T11:14:46;5.47;;;1.83;;
66946;SDS011;53853;51.982;5.928;2022-08-21T11:17:24;7.05;;;2.22;;
66946;SDS011;53853;51.982;5.928;2022-08-21T11:20:03;6.97;;;1.85;;
66946;SDS011;53853;51.982;5.928;2022-08-21T11:22:38;5.60;;;1.83;;
66946;SDS011;53853;51.982;5.928;2022-08-21T11:25:21;6.47;;;2.13;;
66946;SDS011;53853;51.982;5.928;2022-08-21T11:27:56;5.82;;;2.17;;
66946;SDS011;53853;51.982;5.928;2022-08-21T11:30:32;8.10;;;2.28;;
66946;SDS011;53853;51.982;5.928;2022-08-21T11:33:17;5.68;;;2.38;;
66946;SDS011;53853;51.982;5.928;2022-08-21T11:35:56;7.90;;;2.50;;
66946;SDS011;53853;51.982;5.928;2022-08-21T11:38:33;6.55;;;2.40;;
66946;SDS011;53853;51.982;5.928;2022-08-21T11:41:11;6.85;;;1.83;;
66946;SDS011;53853;51.982;5.928;2022-08-21T11:43:55;7.22;;;2.00;;
66946;SDS011;53853;51.982;5.928;2022-08-21T11:46:34;6.43;;;2.20;;
66946;SDS011;53853;51.982;5.928;2022-08-21T11:49:23;7.32;;;2.30;;
66946;SDS011;53853;51.982;5.928;2022-08-21T11:52:07;5.05;;;1.90;;
66946;SDS011;53853;51.982;5.928;2022-08-21T11:54:55;3.78;;;1.60;;
66946;SDS011;53853;51.982;5.928;2022-08-21T11:57:32;6.93;;;2.38;;
66946;SDS011;53853;51.982;5.928;2022-08-21T12:00:10;8.02;;;2.13;;
66946;SDS011;53853;51.982;5.928;2022-08-21T12:02:48;8.52;;;2.13;;
66946;SDS011;53853;51.982;5.928;2022-08-21T12:05:27;3.45;;;1.60;;
66946;SDS011;53853;51.982;5.928;2022-08-21T12:08:11;4.00;;;1.52;;
66946;SDS011;53853;51.982;5.928;2022-08-21T12:10:45;6.03;;;2.17;;
66946;SDS011;53853;51.982;5.928;2022-08-21T12:13:28;6.75;;;2.05;;
66946;SDS011;53853;51.982;5.928;2022-08-21T12:16:06;8.73;;;2.20;;
66946;SDS011;53853;51.982;5.928;2022-08-21T12:18:37;6.65;;;1.95;;
66946;SDS011;53853;51.982;5.928;2022-08-21T12:21:22;5.90;;;2.22;;
66946;SDS011;53853;51.982;5.928;2022-08-21T12:24:01;5.93;;;1.80;;
66946;SDS011;53853;51.982;5.928;2022-08-21T12:26:48;4.07;;;1.92;;
66946;SDS011;53853;51.982;5.928;2022-08-21T12:29:23;6.53;;;1.80;;
66946;SDS011;53853;51.982;5.928;2022-08-21T12:31:57;7.68;;;2.00;;
66946;SDS011;53853;51.982;5.928;2022-08-21T12:34:34;5.25;;;2.00;;
66946;SDS011;53853;51.982;5.928;2022-08-21T12:37:12;7.68;;;2.03;;
66946;SDS011;53853;51.982;5.928;2022-08-21T12:39:51;7.20;;;1.77;;
66946;SDS011;53853;51.982;5.928;2022-08-21T12:42:23;6.00;;;2.08;;
66946;SDS011;53853;51.982;5.928;2022-08-21T12:44:59;6.25;;;2.03;;
66946;SDS011;53853;51.982;5.928;2022-08-21T12:47:33;6.18;;;2.38;;
66946;SDS011;53853;51.982;5.928;2022-08-21T12:50:13;4.40;;;1.60;;
66946;SDS011;53853;51.982;5.928;2022-08-21T12:52:54;5.78;;;1.83;;
66946;SDS011;53853;51.982;5.928;2022-08-21T12:55:29;5.40;;;1.88;;
66946;SDS011;53853;51.982;5.928;2022-08-21T12:58:00;6.47;;;2.05;;
66946;SDS011;53853;51.982;5.928;2022-08-21T13:00:33;5.45;;;1.70;;
66946;SDS011;53853;51.982;5.928;2022-08-21T13:03:03;5.43;;;1.40;;
66946;SDS011;53853;51.982;5.928;2022-08-21T13:05:35;3.53;;;1.60;;
66946;SDS011;53853;51.982;5.928;2022-08-21T13:08:09;5.43;;;1.92;;
66946;SDS011;53853;51.982;5.928;2022-08-21T13:10:41;5.22;;;1.90;;
66946;SDS011;53853;51.982;5.928;2022-08-21T13:13:16;7.22;;;1.50;;
66946;SDS011;53853;51.982;5.928;2022-08-21T13:15:49;6.53;;;2.00;;
66946;SDS011;53853;51.982;5.928;2022-08-21T13:18:26;6.22;;;1.80;;
66946;SDS011;53853;51.982;5.928;2022-08-21T13:21:05;6.28;;;1.48;;
66946;SDS011;53853;51.982;5.928;2022-08-21T13:23:40;4.93;;;1.70;;
66946;SDS011;53853;51.982;5.928;2022-08-21T13:26:14;4.50;;;1.60;;
66946;SDS011;53853;51.982;5.928;2022-08-21T13:28:45;3.83;;;1.77;;
66946;SDS011;53853;51.982;5.928;2022-08-21T13:31:18;4.32;;;1.33;;
66946;SDS011;53853;51.982;5.928;2022-08-21T13:33:57;4.70;;;1.40;;
66946;SDS011;53853;51.982;5.928;2022-08-21T13:36:29;7.53;;;1.90;;
66946;SDS011;53853;51.982;5.928;2022-08-21T13:41:35;2.70;;;1.20;;
66946;SDS011;53853;51.982;5.928;2022-08-21T13:44:14;2.88;;;1.27;;
66946;SDS011;53853;51.982;5.928;2022-08-21T13:46:47;5.68;;;2.03;;
66946;SDS011;53853;51.982;5.928;2022-08-21T13:49:20;5.35;;;1.80;;
66946;SDS011;53853;51.982;5.928;2022-08-21T13:51:54;5.72;;;2.15;;
66946;SDS011;53853;51.982;5.928;2022-08-21T13:54:29;4.07;;;1.75;;
66946;SDS011;53853;51.982;5.928;2022-08-21T13:57:03;4.60;;;1.73;;
66946;SDS011;53853;51.982;5.928;2022-08-21T13:59:44;4.55;;;1.45;;
66946;SDS011;53853;51.982;5.928;2022-08-21T14:02:15;4.65;;;1.52;;
66946;SDS011;53853;51.982;5.928;2022-08-21T14:04:50;4.20;;;1.63;;
66946;SDS011;53853;51.982;5.928;2022-08-21T14:07:24;5.88;;;1.10;;
66946;SDS011;53853;51.982;5.928;2022-08-21T14:10:02;4.22;;;1.98;;
66946;SDS011;53853;51.982;5.928;2022-08-21T14:12:36;4.35;;;1.30;;
66946;SDS011;53853;51.982;5.928;2022-08-21T14:15:12;7.05;;;1.80;;
66946;SDS011;53853;51.982;5.928;2022-08-21T14:17:42;2.70;;;1.17;;
66946;SDS011;53853;51.982;5.928;2022-08-21T14:20:25;5.57;;;1.10;;
66946;SDS011;53853;51.982;5.928;2022-08-21T14:22:59;3.90;;;1.60;;
66946;SDS011;53853;51.982;5.928;2022-08-21T14:25:37;6.03;;;1.63;;
66946;SDS011;53853;51.982;5.928;2022-08-21T14:28:15;3.33;;;1.35;;
66946;SDS011;53853;51.982;5.928;2022-08-21T14:30:52;4.25;;;2.00;;
66946;SDS011;53853;51.982;5.928;2022-08-21T14:33:25;4.93;;;2.40;;
66946;SDS011;53853;51.982;5.928;2022-08-21T14:35:57;6.10;;;2.45;;
66946;SDS011;53853;51.982;5.928;2022-08-21T14:38:28;2.95;;;1.02;;
66946;SDS011;53853;51.982;5.928;2022-08-21T14:41:03;3.60;;;1.73;;
66946;SDS011;53853;51.982;5.928;2022-08-21T14:43:41;5.30;;;1.70;;
66946;SDS011;53853;51.982;5.928;2022-08-21T14:46:12;5.60;;;1.63;;
66946;SDS011;53853;51.982;5.928;2022-08-21T14:48:45;3.95;;;1.92;;
66946;SDS011;53853;51.982;5.928;2022-08-21T14:51:16;5.90;;;2.10;;
66946;SDS011;53853;51.982;5.928;2022-08-21T14:53:46;6.95;;;1.80;;
66946;SDS011;53853;51.982;5.928;2022-08-21T14:56:19;7.95;;;2.10;;
66946;SDS011;53853;51.982;5.928;2022-08-21T14:58:51;5.38;;;1.90;;
66946;SDS011;53853;51.982;5.928;2022-08-21T15:01:21;6.97;;;1.55;;
66946;SDS011;53853;51.982;5.928;2022-08-21T15:03:51;4.60;;;2.00;;
66946;SDS011;53853;51.982;5.928;2022-08-21T15:06:30;3.90;;;1.50;;
66946;SDS011;53853;51.982;5.928;2022-08-21T15:12:53;3.28;;;1.25;;
66946;SDS011;53853;51.982;5.928;2022-08-21T15:15:23;4.97;;;1.52;;
66946;SDS011;53853;51.982;5.928;2022-08-21T15:18:08;4.13;;;1.83;;
66946;SDS011;53853;51.982;5.928;2022-08-21T15:21:03;5.20;;;1.73;;
66946;SDS011;53853;51.982;5.928;2022-08-21T15:23:47;5.10;;;1.55;;
66946;SDS011;53853;51.982;5.928;2022-08-21T15:27:01;4.68;;;1.88;;
66946;SDS011;53853;51.982;5.928;2022-08-21T15:33:45;5.90;;;1.77;;
66946;SDS011;53853;51.982;5.928;2022-08-21T15:39:58;6.53;;;2.45;;
66946;SDS011;53853;51.982;5.928;2022-08-21T15:43:44;4.07;;;2.00;;